Time;durP1;ratioP1;P1;durP2;ratioP2;P2;SDS_P1;SDS_P2;PMS_P1;PMS_P2;Temp;Humidity;BMP_temperature;BMP_pressure;BME280_temperature;BME280_humidity;BME280_pressure;Samples;Min_cycle;Max_cycle;Signal;HPM_P1;HPM_P2
2023/12/21 00:02:21;;;;;;;1.95;1.50;;;;;;;;;;7402002;19;20019;-75
2023/12/21 00:04:47;;;;;;;2.72;1.60;;;;;;;;;;7378410;19;20307;-76
2023/12/21 00:07:12;;;;;;;2.70;1.70;;;;;;;;;;7381454;19;20126;-77
2023/12/21 00:09:37;;;;;;;4.10;1.80;;;;;;;;;;7382036;19;20014;-76
2023/12/21 00:12:03;;;;;;;4.43;1.98;;;;;;;;;;7380023;19;20007;-78
2023/12/21 00:14:30;;;;;;;2.88;1.73;;;;;;;;;;7396141;19;20002;-76
2023/12/21 00:16:56;;;;;;;2.88;1.73;;;;;;;;;;7373476;19;20013;-76
2023/12/21 00:19:21;;;;;;;2.53;1.50;;;;;;;;;;7375369;19;20349;-77
2023/12/21 00:21:46;;;;;;;1.92;1.50;;;;;;;;;;7381810;19;20032;-77
2023/12/21 00:24:12;;;;;;;4.63;1.80;;;;;;;;;;7373939;19;20018;-75
2023/12/21 00:26:37;;;;;;;2.47;1.60;;;;;;;;;;7392911;19;20035;-76
2023/12/21 00:29:02;;;;;;;3.15;1.40;;;;;;;;;;7370525;19;20006;-76
2023/12/21 00:31:28;;;;;;;2.38;1.50;;;;;;;;;;7373134;19;20848;-76
2023/12/21 00:33:53;;;;;;;2.60;1.55;;;;;;;;;;7374522;19;20021;-76
2023/12/21 00:36:18;;;;;;;1.63;1.52;;;;;;;;;;7372094;19;20007;-75
2023/12/21 00:38:44;;;;;;;2.20;1.38;;;;;;;;;;7393906;19;20010;-76
2023/12/21 00:41:09;;;;;;;1.52;1.30;;;;;;;;;;7380960;19;20418;-77
2023/12/21 00:43:35;;;;;;;2.28;1.30;;;;;;;;;;7381794;19;20014;-76
2023/12/21 00:46:00;;;;;;;2.42;1.30;;;;;;;;;;7383425;19;20006;-77
2023/12/21 00:48:26;;;;;;;1.20;1.10;;;;;;;;;;7380574;19;20692;-77
2023/12/21 00:50:51;;;;;;;1.65;1.30;;;;;;;;;;7377339;19;20029;-77
2023/12/21 00:53:19;;;;;;;3.92;1.40;;;;;;;;;;7403744;19;20017;-76
2023/12/21 00:55:44;;;;;;;1.23;1.13;;;;;;;;;;7381469;19;20339;-76
2023/12/21 00:58:10;;;;;;;1.73;1.10;;;;;;;;;;7380979;19;20014;-76
2023/12/21 01:00:35;;;;;;;1.55;1.20;;;;;;;;;;7384150;19;20040;-78
2023/12/21 01:03:00;;;;;;;1.25;1.10;;;;;;;;;;7379233;19;20002;-77
2023/12/21 01:05:26;;;;;;;1.67;1.10;;;;;;;;;;7402162;19;20009;-78
2023/12/21 01:07:51;;;;;;;1.30;1.20;;;;;;;;;;7385447;19;20006;-76
2023/12/21 01:10:16;;;;;;;1.13;1.00;;;;;;;;;;7385167;19;20010;-76
2023/12/21 01:12:42;;;;;;;0.98;0.98;;;;;;;;;;7385669;19;20050;-77
2023/12/21 01:15:07;;;;;;;1.00;1.00;;;;;;;;;;7382529;19;20387;-77
2023/12/21 01:17:34;;;;;;;1.77;0.93;;;;;;;;;;7404710;19;20362;-77
2023/12/21 01:19:59;;;;;;;1.15;1.08;;;;;;;;;;7377292;19;20473;-77
2023/12/21 01:22:24;;;;;;;0.80;0.80;;;;;;;;;;7378310;19;20027;-77
2023/12/21 01:24:50;;;;;;;1.27;0.95;;;;;;;;;;7378385;19;20555;-76
2023/12/21 01:27:15;;;;;;;1.08;1.00;;;;;;;;;;7376758;19;20027;-76
2023/12/21 01:29:40;;;;;;;1.92;1.00;;;;;;;;;;7398762;19;19999;-77
2023/12/21 01:32:06;;;;;;;0.93;0.93;;;;;;;;;;7380201;19;20078;-77
2023/12/21 01:34:31;;;;;;;1.15;0.90;;;;;;;;;;7377648;19;20104;-77
2023/12/21 01:36:57;;;;;;;0.80;0.80;;;;;;;;;;7376098;19;20021;-77
2023/12/21 01:39:23;;;;;;;0.80;0.80;;;;;;;;;;7378301;19;20083;-77
2023/12/21 01:41:49;;;;;;;1.35;1.15;;;;;;;;;;7378834;19;20002;-77
2023/12/21 01:44:15;;;;;;;1.00;0.80;;;;;;;;;;7395369;19;20027;-77
2023/12/21 01:46:41;;;;;;;0.90;0.90;;;;;;;;;;7373116;19;20014;-77
2023/12/21 01:49:06;;;;;;;2.28;1.00;;;;;;;;;;7371825;19;20025;-77
2023/12/21 01:51:33;;;;;;;1.90;1.00;;;;;;;;;;7376674;19;20010;-77
2023/12/21 01:54:02;;;;;;;1.02;1.00;;;;;;;;;;7372989;19;19995;-77
2023/12/21 01:56:27;;;;;;;0.90;0.90;;;;;;;;;;7401716;19;20327;-76
2023/12/21 01:58:53;;;;;;;1.02;0.88;;;;;;;;;;7376781;19;20085;-77
2023/12/21 02:01:19;;;;;;;0.88;0.88;;;;;;;;;;7373233;19;20006;-76
2023/12/21 02:03:45;;;;;;;0.95;0.88;;;;;;;;;;7374493;19;20623;-76
2023/12/21 02:06:11;;;;;;;0.80;0.80;;;;;;;;;;7375344;19;20081;-77
2023/12/21 02:08:37;;;;;;;0.80;0.80;;;;;;;;;;7398281;19;20003;-79
2023/12/21 02:11:09;;;;;;;0.80;0.80;;;;;;;;;;7385278;19;20055;-77
2023/12/21 02:13:35;;;;;;;0.95;0.93;;;;;;;;;;7378773;19;20002;-77
2023/12/21 02:16:14;;;;;;;1.63;0.88;;;;;;;;;;7374340;19;20010;-76
2023/12/21 02:18:41;;;;;;;0.70;0.70;;;;;;;;;;7372744;19;20010;-76
2023/12/21 02:21:07;;;;;;;0.98;0.90;;;;;;;;;;7371979;19;20003;-76
2023/12/21 02:23:36;;;;;;;1.05;1.00;;;;;;;;;;7394714;19;20005;-75
2023/12/21 02:26:02;;;;;;;0.80;0.80;;;;;;;;;;7371544;19;20003;-76
2023/12/21 02:28:28;;;;;;;1.58;0.93;;;;;;;;;;7375127;19;20010;-78
2023/12/21 02:30:53;;;;;;;1.27;0.90;;;;;;;;;;7373231;19;19995;-76
2023/12/21 02:33:19;;;;;;;0.90;0.90;;;;;;;;;;7372481;19;20513;-79
2023/12/21 02:35:44;;;;;;;1.10;1.10;;;;;;;;;;7394672;19;20007;-77
2023/12/21 02:38:09;;;;;;;0.90;0.90;;;;;;;;;;7369133;19;20011;-77
2023/12/21 02:40:35;;;;;;;0.93;0.93;;;;;;;;;;7368566;19;20014;-76
2023/12/21 02:43:00;;;;;;;0.95;0.90;;;;;;;;;;7370211;19;20010;-76
2023/12/21 02:45:26;;;;;;;0.80;0.80;;;;;;;;;;7372254;19;20145;-78
2023/12/21 02:47:51;;;;;;;0.95;0.88;;;;;;;;;;7372254;19;20028;-78
2023/12/21 02:50:16;;;;;;;0.80;0.80;;;;;;;;;;7390959;19;19998;-77
2023/12/21 02:52:42;;;;;;;2.22;0.80;;;;;;;;;;7371881;19;20009;-77
2023/12/21 02:55:07;;;;;;;0.80;0.80;;;;;;;;;;7374180;19;20011;-76
2023/12/21 02:57:33;;;;;;;1.08;0.98;;;;;;;;;;7371166;19;20023;-75
2023/12/21 02:59:58;;;;;;;1.05;0.98;;;;;;;;;;7372930;19;20003;-76
2023/12/21 03:02:24;;;;;;;1.75;1.05;;;;;;;;;;7396879;19;20457;-76
2023/12/21 03:04:49;;;;;;;1.05;1.00;;;;;;;;;;7371299;19;20054;-76
2023/12/21 03:07:21;;;;;;;1.73;1.42;;;;;;;;;;7377301;19;20002;-79
2023/12/21 03:09:46;;;;;;;0.90;0.90;;;;;;;;;;7374334;19;20003;-76
2023/12/21 03:12:12;;;;;;;1.02;1.02;;;;;;;;;;7375732;19;20496;-76
2023/12/21 03:14:37;;;;;;;1.23;1.00;;;;;;;;;;7394033;19;20005;-76
2023/12/21 03:17:02;;;;;;;0.90;0.90;;;;;;;;;;7373494;19;20074;-76
2023/12/21 03:19:28;;;;;;;1.00;0.90;;;;;;;;;;7371101;19;20010;-75
2023/12/21 03:21:53;;;;;;;0.85;0.85;;;;;;;;;;7372395;19;20023;-76
2023/12/21 03:24:18;;;;;;;0.80;0.80;;;;;;;;;;7374865;19;20064;-77
2023/12/21 03:26:45;;;;;;;0.73;0.73;;;;;;;;;;7393235;19;20014;-75
2023/12/21 03:29:11;;;;;;;0.90;0.90;;;;;;;;;;7372449;19;20017;-77
2023/12/21 03:31:36;;;;;;;0.95;0.95;;;;;;;;;;7374706;19;20007;-76
2023/12/21 03:34:02;;;;;;;0.80;0.80;;;;;;;;;;7382043;19;20011;-76
2023/12/21 03:36:27;;;;;;;0.90;0.85;;;;;;;;;;7380549;19;20036;-76
2023/12/21 03:38:52;;;;;;;1.00;1.00;;;;;;;;;;7380022;19;20528;-76
2023/12/21 03:41:18;;;;;;;0.75;0.75;;;;;;;;;;7415636;19;20065;-75
2023/12/21 03:43:43;;;;;;;1.05;0.80;;;;;;;;;;7396404;19;20021;-76
2023/12/21 03:46:09;;;;;;;0.80;0.80;;;;;;;;;;7388524;19;20477;-78
2023/12/21 03:48:35;;;;;;;0.90;0.90;;;;;;;;;;7384426;19;20040;-75
2023/12/21 03:51:00;;;;;;;0.80;0.80;;;;;;;;;;7383133;19;20006;-77
2023/12/21 03:53:25;;;;;;;0.82;0.82;;;;;;;;;;7407116;19;20003;-76
2023/12/21 03:55:51;;;;;;;0.90;0.90;;;;;;;;;;7384404;19;20110;-76
2023/12/21 03:58:16;;;;;;;1.95;0.80;;;;;;;;;;7381472;19;20467;-77
2023/12/21 04:00:41;;;;;;;0.88;0.88;;;;;;;;;;7381467;19;20006;-77
2023/12/21 04:03:07;;;;;;;0.93;0.93;;;;;;;;;;7380275;19;20433;-76
2023/12/21 04:05:32;;;;;;;1.27;0.85;;;;;;;;;;7399803;19;20027;-76
2023/12/21 04:07:57;;;;;;;0.90;0.90;;;;;;;;;;7378289;19;20006;-77
2023/12/21 04:10:23;;;;;;;0.93;0.93;;;;;;;;;;7378598;19;20020;-77
2023/12/21 04:12:48;;;;;;;1.02;1.00;;;;;;;;;;7377655;19;20117;-76
2023/12/21 04:15:13;;;;;;;0.90;0.90;;;;;;;;;;7376268;19;20007;-76
2023/12/21 04:17:39;;;;;;;0.80;0.80;;;;;;;;;;7396594;19;20118;-76
2023/12/21 04:20:05;;;;;;;0.95;0.95;;;;;;;;;;7374961;19;20021;-76
2023/12/21 04:22:30;;;;;;;0.80;0.80;;;;;;;;;;7375106;19;20518;-76
2023/12/21 04:24:56;;;;;;;0.93;0.93;;;;;;;;;;7380165;19;20019;-76
2023/12/21 04:27:21;;;;;;;1.05;0.80;;;;;;;;;;7376603;19;20011;-77
2023/12/21 04:29:46;;;;;;;1.05;0.98;;;;;;;;;;7380208;19;20361;-75
2023/12/21 04:32:11;;;;;;;1.10;1.00;;;;;;;;;;7396258;19;20283;-75
2023/12/21 04:34:37;;;;;;;0.98;0.95;;;;;;;;;;7371414;19;20508;-75
2023/12/21 04:37:02;;;;;;;0.68;0.68;;;;;;;;;;7371878;19;20007;-76
2023/12/21 04:39:28;;;;;;;1.02;0.90;;;;;;;;;;7372086;19;20007;-75
2023/12/21 04:41:53;;;;;;;0.77;0.77;;;;;;;;;;7371264;19;20002;-75
2023/12/21 04:44:18;;;;;;;0.80;0.80;;;;;;;;;;7390349;19;20003;-76
2023/12/21 04:46:47;;;;;;;1.60;0.73;;;;;;;;;;7370330;19;20082;-76
2023/12/21 04:49:13;;;;;;;1.27;0.80;;;;;;;;;;7371368;19;20082;-76
2023/12/21 04:51:39;;;;;;;0.93;0.93;;;;;;;;;;7370180;19;20010;-76
2023/12/21 04:54:04;;;;;;;0.90;0.90;;;;;;;;;;7367410;19;25652;-76
2023/12/21 04:56:29;;;;;;;0.70;0.70;;;;;;;;;;7390616;19;20310;-75
2023/12/21 04:58:54;;;;;;;0.60;0.60;;;;;;;;;;7368978;19;20010;-76
2023/12/21 05:01:20;;;;;;;0.80;0.80;;;;;;;;;;7368555;19;20010;-75
2023/12/21 05:03:45;;;;;;;1.15;1.00;;;;;;;;;;7368787;19;20771;-77
2023/12/21 05:06:11;;;;;;;0.90;0.75;;;;;;;;;;7367889;19;20006;-75
2023/12/21 05:08:36;;;;;;;0.60;0.60;;;;;;;;;;7390539;19;20495;-75
2023/12/21 05:11:02;;;;;;;0.80;0.80;;;;;;;;;;7368733;19;20005;-74
2023/12/21 05:13:27;;;;;;;0.70;0.70;;;;;;;;;;7367246;19;19998;-75
2023/12/21 05:15:52;;;;;;;0.80;0.80;;;;;;;;;;7367152;19;20106;-74
2023/12/21 05:18:18;;;;;;;0.77;0.77;;;;;;;;;;7369014;19;20006;-74
2023/12/21 05:20:43;;;;;;;0.80;0.80;;;;;;;;;;7390963;19;19998;-75
2023/12/21 05:23:09;;;;;;;0.75;0.75;;;;;;;;;;7367283;19;20578;-75
2023/12/21 05:25:34;;;;;;;0.80;0.80;;;;;;;;;;7367281;19;20520;-75
2023/12/21 05:27:59;;;;;;;0.70;0.70;;;;;;;;;;7366977;19;20121;-75
2023/12/21 05:30:24;;;;;;;0.70;0.70;;;;;;;;;;7365982;19;20014;-75
2023/12/21 05:32:50;;;;;;;1.55;0.80;;;;;;;;;;7368057;19;20002;-75
2023/12/21 05:35:16;;;;;;;0.82;0.82;;;;;;;;;;7391162;19;19999;-75
2023/12/21 05:37:41;;;;;;;0.85;0.82;;;;;;;;;;7368696;19;20114;-75
2023/12/21 05:40:07;;;;;;;0.70;0.70;;;;;;;;;;7368312;19;20006;-75
2023/12/21 05:42:32;;;;;;;0.85;0.85;;;;;;;;;;7368821;19;20010;-75
2023/12/21 05:44:58;;;;;;;1.20;0.77;;;;;;;;;;7369070;19;20470;-75
2023/12/21 05:47:24;;;;;;;0.88;0.88;;;;;;;;;;7391462;19;20109;-75
2023/12/21 05:49:49;;;;;;;0.68;0.68;;;;;;;;;;7368877;19;20041;-76
2023/12/21 05:52:14;;;;;;;0.80;0.80;;;;;;;;;;7370062;19;19998;-75
2023/12/21 05:54:39;;;;;;;0.80;0.80;;;;;;;;;;7368088;19;20019;-75
2023/12/21 05:57:05;;;;;;;0.73;0.73;;;;;;;;;;7365121;19;20521;-74
2023/12/21 05:59:30;;;;;;;1.55;0.70;;;;;;;;;;7390496;19;20394;-75
2023/12/21 06:01:56;;;;;;;0.70;0.70;;;;;;;;;;7367368;19;20007;-74
2023/12/21 06:04:22;;;;;;;1.00;0.90;;;;;;;;;;7365757;19;20019;-74
2023/12/21 06:06:48;;;;;;;0.80;0.80;;;;;;;;;;7366337;19;20014;-75
2023/12/21 06:09:13;;;;;;;0.95;0.90;;;;;;;;;;7366004;19;20029;-75
2023/12/21 06:11:39;;;;;;;0.70;0.70;;;;;;;;;;7389416;19;20013;-75
2023/12/21 06:14:05;;;;;;;0.80;0.80;;;;;;;;;;7364725;19;20003;-74
2023/12/21 06:16:31;;;;;;;0.95;0.85;;;;;;;;;;7366468;19;20568;-75
2023/12/21 06:18:56;;;;;;;0.80;0.80;;;;;;;;;;7367580;19;20036;-74
2023/12/21 06:21:23;;;;;;;0.73;0.70;;;;;;;;;;7369448;19;20014;-75
2023/12/21 06:23:48;;;;;;;0.80;0.80;;;;;;;;;;7374277;19;20007;-75
2023/12/21 06:26:14;;;;;;;1.10;1.00;;;;;;;;;;7390021;19;20027;-77
2023/12/21 06:28:41;;;;;;;0.75;0.75;;;;;;;;;;7369198;19;20006;-77
2023/12/21 06:31:06;;;;;;;1.42;1.27;;;;;;;;;;7367399;19;20010;-76
2023/12/21 06:33:31;;;;;;;0.95;0.95;;;;;;;;;;7368896;19;20558;-75
2023/12/21 06:35:57;;;;;;;1.55;0.90;;;;;;;;;;7367111;19;20022;-76
2023/12/21 06:38:22;;;;;;;1.00;1.00;;;;;;;;;;7387122;19;19998;-74
2023/12/21 06:40:47;;;;;;;0.80;0.80;;;;;;;;;;7371554;19;20035;-75
2023/12/21 06:43:13;;;;;;;0.93;0.93;;;;;;;;;;7378579;19;20018;-75
2023/12/21 06:45:38;;;;;;;1.25;1.10;;;;;;;;;;7352599;19;20007;-74
2023/12/21 06:48:04;;;;;;;1.20;1.10;;;;;;;;;;7358196;19;20398;-74
2023/12/21 06:50:29;;;;;;;1.02;0.98;;;;;;;;;;7382587;19;20009;-74
2023/12/21 06:52:54;;;;;;;1.42;1.20;;;;;;;;;;7360989;19;20515;-74
2023/12/21 06:55:21;;;;;;;1.48;1.10;;;;;;;;;;7363853;19;20010;-74
2023/12/21 06:57:46;;;;;;;1.38;1.20;;;;;;;;;;7363393;19;20409;-76
2023/12/21 07:00:12;;;;;;;1.20;1.10;;;;;;;;;;7363128;19;20011;-74
2023/12/21 07:02:37;;;;;;;1.55;1.30;;;;;;;;;;7383492;19;20456;-76
2023/12/21 07:05:03;;;;;;;1.02;1.02;;;;;;;;;;7354726;19;20483;-74
2023/12/21 07:07:29;;;;;;;1.30;1.08;;;;;;;;;;7367609;19;20067;-75
2023/12/21 07:09:54;;;;;;;1.08;1.08;;;;;;;;;;7369108;19;20006;-75
2023/12/21 07:12:20;;;;;;;1.33;1.20;;;;;;;;;;7369165;19;20011;-75
2023/12/21 07:14:46;;;;;;;0.93;0.93;;;;;;;;;;7386163;19;20019;-74
2023/12/21 07:17:12;;;;;;;1.13;1.02;;;;;;;;;;7390172;19;20015;-75
2023/12/21 07:19:38;;;;;;;0.90;0.90;;;;;;;;;;7368592;19;20007;-75
2023/12/21 07:22:06;;;;;;;1.30;1.20;;;;;;;;;;7369863;19;20003;-76
2023/12/21 07:24:31;;;;;;;0.90;0.90;;;;;;;;;;7367688;19;20006;-75
2023/12/21 07:26:56;;;;;;;0.98;0.90;;;;;;;;;;7368582;19;20003;-75
2023/12/21 07:29:22;;;;;;;0.88;0.88;;;;;;;;;;7390564;19;19998;-75
2023/12/21 07:31:47;;;;;;;0.98;0.98;;;;;;;;;;7369840;19;20027;-76
2023/12/21 07:34:13;;;;;;;1.00;1.00;;;;;;;;;;7367893;19;20014;-75
2023/12/21 07:36:38;;;;;;;1.52;1.10;;;;;;;;;;7370989;19;20006;-76
2023/12/21 07:39:04;;;;;;;1.35;0.98;;;;;;;;;;7370528;19;20011;-76
2023/12/21 07:41:30;;;;;;;0.90;0.90;;;;;;;;;;7389866;19;20006;-74
2023/12/21 07:43:59;;;;;;;4.05;1.95;;;;;;;;;;7366716;19;20015;-74
2023/12/21 07:46:24;;;;;;;1.92;1.02;;;;;;;;;;7369644;19;20019;-76
2023/12/21 07:48:50;;;;;;;0.70;0.70;;;;;;;;;;7369456;19;20022;-78
2023/12/21 07:51:15;;;;;;;0.80;0.80;;;;;;;;;;7367868;19;20012;-74
2023/12/21 07:53:43;;;;;;;0.90;0.90;;;;;;;;;;7389475;19;19999;-75
2023/12/21 07:56:09;;;;;;;0.95;0.93;;;;;;;;;;7368798;19;20011;-75
2023/12/21 07:58:34;;;;;;;0.80;0.80;;;;;;;;;;7357875;19;20663;-75
2023/12/21 08:01:00;;;;;;;0.98;0.98;;;;;;;;;;7366571;19;20026;-75
2023/12/21 08:03:25;;;;;;;0.80;0.80;;;;;;;;;;7368762;19;20002;-75
2023/12/21 08:05:51;;;;;;;0.85;0.85;;;;;;;;;;7367792;19;20001;-75
2023/12/21 08:08:16;;;;;;;0.70;0.70;;;;;;;;;;7390074;19;20339;-75
2023/12/21 08:10:42;;;;;;;3.15;0.90;;;;;;;;;;7366900;19;20009;-75
2023/12/21 08:13:10;;;;;;;0.68;0.68;;;;;;;;;;7357078;19;20010;-76
2023/12/21 08:15:35;;;;;;;0.80;0.80;;;;;;;;;;7365698;19;20003;-75
2023/12/21 08:18:01;;;;;;;2.45;0.80;;;;;;;;;;7365261;19;20601;-75
2023/12/21 08:20:27;;;;;;;0.70;0.70;;;;;;;;;;7391421;19;20007;-75
2023/12/21 08:22:52;;;;;;;1.35;0.80;;;;;;;;;;7366535;19;20044;-74
2023/12/21 08:25:18;;;;;;;0.60;0.60;;;;;;;;;;7369344;19;20014;-74
2023/12/21 08:27:43;;;;;;;1.02;1.00;;;;;;;;;;7370807;19;20040;-75
2023/12/21 08:30:10;;;;;;;0.70;0.70;;;;;;;;;;7369075;19;20010;-74
2023/12/21 08:32:35;;;;;;;0.70;0.70;;;;;;;;;;7388184;19;20006;-76
2023/12/21 08:35:01;;;;;;;0.77;0.70;;;;;;;;;;7366430;19;20386;-76
2023/12/21 08:37:26;;;;;;;0.93;0.82;;;;;;;;;;7366815;19;20417;-76
2023/12/21 08:39:51;;;;;;;0.80;0.80;;;;;;;;;;7367641;19;20473;-75
2023/12/21 08:42:17;;;;;;;0.90;0.90;;;;;;;;;;7365812;19;20013;-75
2023/12/21 08:44:43;;;;;;;0.82;0.82;;;;;;;;;;7389889;19;20120;-76
2023/12/21 08:47:08;;;;;;;2.90;1.85;;;;;;;;;;7367798;19;20082;-75
2023/12/21 08:49:33;;;;;;;3.13;1.77;;;;;;;;;;7367804;19;20003;-75
2023/12/21 08:51:59;;;;;;;0.88;0.88;;;;;;;;;;7365601;19;20006;-76
2023/12/21 08:54:24;;;;;;;1.45;0.90;;;;;;;;;;7366266;19;20539;-76
2023/12/21 08:56:50;;;;;;;0.80;0.80;;;;;;;;;;7370505;19;20667;-76
2023/12/21 08:59:16;;;;;;;0.70;0.70;;;;;;;;;;7398157;19;20027;-75
2023/12/21 09:01:42;;;;;;;1.50;0.88;;;;;;;;;;7368802;19;20010;-75
2023/12/21 09:04:07;;;;;;;1.33;1.05;;;;;;;;;;7364576;19;20027;-75
2023/12/21 09:06:32;;;;;;;0.80;0.80;;;;;;;;;;7365352;19;20014;-76
2023/12/21 09:08:58;;;;;;;1.05;0.80;;;;;;;;;;7366566;19;20064;-75
2023/12/21 09:11:25;;;;;;;0.80;0.80;;;;;;;;;;7386520;19;20063;-75
2023/12/21 09:13:51;;;;;;;0.82;0.82;;;;;;;;;;7366568;19;20003;-76
2023/12/21 09:16:17;;;;;;;1.88;0.85;;;;;;;;;;7369405;19;20018;-74
2023/12/21 09:18:46;;;;;;;1.20;1.00;;;;;;;;;;7365401;19;20007;-74
2023/12/21 09:21:11;;;;;;;0.80;0.80;;;;;;;;;;7366331;19;20082;-75
2023/12/21 09:23:38;;;;;;;0.80;0.80;;;;;;;;;;7386258;19;20466;-75
2023/12/21 09:26:03;;;;;;;0.80;0.80;;;;;;;;;;7364490;19;20002;-74
2023/12/21 09:28:29;;;;;;;0.70;0.70;;;;;;;;;;7366236;19;20488;-74
2023/12/21 09:30:55;;;;;;;0.80;0.80;;;;;;;;;;7362061;19;19998;-73
2023/12/21 09:33:20;;;;;;;0.73;0.73;;;;;;;;;;7366246;19;20007;-75
2023/12/21 09:35:46;;;;;;;0.90;0.90;;;;;;;;;;7380065;19;20330;-75
2023/12/21 09:38:11;;;;;;;0.80;0.80;;;;;;;;;;7380227;19;20550;-75
2023/12/21 09:40:36;;;;;;;1.42;0.80;;;;;;;;;;7367160;19;20010;-75
2023/12/21 09:43:05;;;;;;;0.60;0.60;;;;;;;;;;7365517;19;20020;-74
2023/12/21 09:45:31;;;;;;;0.63;0.63;;;;;;;;;;7367004;19;20041;-75
2023/12/21 09:47:58;;;;;;;0.63;0.63;;;;;;;;;;7363330;19;20370;-74
2023/12/21 09:50:24;;;;;;;1.23;0.70;;;;;;;;;;7385818;19;20017;-76
2023/12/21 09:52:50;;;;;;;0.63;0.63;;;;;;;;;;7364403;19;20477;-76
2023/12/21 09:55:19;;;;;;;0.70;0.70;;;;;;;;;;7364879;19;20010;-76
2023/12/21 09:57:46;;;;;;;0.60;0.60;;;;;;;;;;7364397;19;20378;-76
2023/12/21 10:00:12;;;;;;;1.02;0.65;;;;;;;;;;7362565;19;20006;-74
2023/12/21 10:02:37;;;;;;;1.35;0.90;;;;;;;;;;7383882;19;20006;-76
2023/12/21 10:05:03;;;;;;;0.70;0.70;;;;;;;;;;7361103;19;20073;-76
2023/12/21 10:07:30;;;;;;;0.52;0.52;;;;;;;;;;7362216;19;20003;-76
2023/12/21 10:09:57;;;;;;;0.57;0.57;;;;;;;;;;7360699;19;20007;-76
2023/12/21 10:12:22;;;;;;;0.50;0.50;;;;;;;;;;7361177;19;20101;-76
2023/12/21 10:14:58;;;;;;;0.43;0.43;;;;;;;;;;7362247;19;20010;-75
2023/12/21 10:17:23;;;;;;;0.82;0.82;;;;;;;;;;7385177;19;20509;-75
2023/12/21 10:19:49;;;;;;;0.63;0.63;;;;;;;;;;7363285;19;20011;-75
2023/12/21 10:22:15;;;;;;;0.70;0.60;;;;;;;;;;7362757;19;20006;-76
2023/12/21 10:24:42;;;;;;;0.88;0.88;;;;;;;;;;7363662;19;20003;-74
2023/12/21 10:27:13;;;;;;;0.68;0.60;;;;;;;;;;7365068;19;20034;-76
2023/12/21 10:29:47;;;;;;;2.87;2.17;;;;;;;;;;7390429;19;20002;-75
2023/12/21 10:32:16;;;;;;;0.88;0.65;;;;;;;;;;7366125;19;20422;-75
2023/12/21 10:34:41;;;;;;;0.50;0.50;;;;;;;;;;7362825;19;20007;-75
2023/12/21 10:37:07;;;;;;;0.52;0.52;;;;;;;;;;7363727;19;20013;-76
2023/12/21 10:39:33;;;;;;;1.05;0.70;;;;;;;;;;7370369;19;20027;-76
2023/12/21 10:41:58;;;;;;;2.60;0.80;;;;;;;;;;7375398;19;19998;-78
2023/12/21 10:44:25;;;;;;;0.80;0.57;;;;;;;;;;7408747;19;20010;-78
2023/12/21 10:46:50;;;;;;;1.25;0.70;;;;;;;;;;7369560;19;20007;-79
2023/12/21 10:49:16;;;;;;;1.00;1.00;;;;;;;;;;7367994;19;20092;-79
2023/12/21 10:51:43;;;;;;;0.90;0.80;;;;;;;;;;7369882;19;20019;-79
2023/12/21 10:54:10;;;;;;;0.70;0.70;;;;;;;;;;7368805;19;20014;-79
2023/12/21 10:56:39;;;;;;;0.77;0.77;;;;;;;;;;7391359;19;20023;-79
2023/12/21 10:59:06;;;;;;;0.60;0.60;;;;;;;;;;7370834;19;20026;-80
2023/12/21 11:01:32;;;;;;;0.70;0.70;;;;;;;;;;7372173;19;20002;-79
2023/12/21 11:04:01;;;;;;;0.60;0.60;;;;;;;;;;7371591;19;20459;-80
2023/12/21 11:06:31;;;;;;;1.35;1.00;;;;;;;;;;7371969;19;20010;-80
2023/12/21 11:08:57;;;;;;;1.85;0.70;;;;;;;;;;7378297;19;19995;-79
2023/12/21 11:11:25;;;;;;;2.30;1.42;;;;;;;;;;7396532;19;20003;-79
2023/12/21 11:13:57;;;;;;;1.48;1.10;;;;;;;;;;7376950;19;20464;-79
2023/12/21 11:16:28;;;;;;;0.90;0.90;;;;;;;;;;7393133;19;20010;-80
2023/12/21 11:18:56;;;;;;;1.00;0.90;;;;;;;;;;7402216;19;19999;-80
2023/12/21 11:21:24;;;;;;;1.60;1.02;;;;;;;;;;7377051;19;20323;-79
2023/12/21 11:23:50;;;;;;;1.55;0.80;;;;;;;;;;7371774;19;20003;-80
2023/12/21 11:26:21;;;;;;;0.75;0.75;;;;;;;;;;7394334;19;20060;-79
2023/12/21 11:28:47;;;;;;;1.20;0.75;;;;;;;;;;7371452;19;20006;-79
2023/12/21 11:31:15;;;;;;;0.73;0.73;;;;;;;;;;7369131;19;20006;-79
2023/12/21 11:33:41;;;;;;;0.90;0.82;;;;;;;;;;7371030;19;20006;-79
2023/12/21 11:36:08;;;;;;;0.70;0.70;;;;;;;;;;7371230;19;20004;-79
2023/12/21 11:38:51;;;;;;;0.80;0.80;;;;;;;;;;7392655;19;20335;-79
2023/12/21 11:41:20;;;;;;;2.80;1.40;;;;;;;;;;7370393;19;20010;-79
2023/12/21 11:44:04;;;;;;;0.52;0.52;;;;;;;;;;7372774;19;20002;-79
2023/12/21 11:46:35;;;;;;;7.88;4.35;;;;;;;;;;7388944;19;20076;-78
2023/12/21 11:49:01;;;;;;;0.93;0.93;;;;;;;;;;7372886;19;20130;-79
2023/12/21 11:51:26;;;;;;;0.47;0.47;;;;;;;;;;7371442;19;20031;-79
2023/12/21 11:53:51;;;;;;;0.43;0.43;;;;;;;;;;7375533;19;20002;-78
2023/12/21 11:56:17;;;;;;;0.75;0.75;;;;;;;;;;7398809;19;20003;-78
2023/12/21 11:58:45;;;;;;;0.70;0.70;;;;;;;;;;7378248;19;20086;-79
2023/12/21 12:01:22;;;;;;;0.68;0.68;;;;;;;;;;7400897;19;20031;-78
2023/12/21 12:03:50;;;;;;;0.50;0.50;;;;;;;;;;7397780;19;20043;-79
2023/12/21 12:06:16;;;;;;;0.65;0.65;;;;;;;;;;7378579;19;20010;-80
2023/12/21 12:08:43;;;;;;;0.60;0.60;;;;;;;;;;7401896;19;20003;-79
2023/12/21 12:11:08;;;;;;;1.08;0.80;;;;;;;;;;7376728;19;20461;-79
2023/12/21 12:13:34;;;;;;;0.70;0.70;;;;;;;;;;7379219;19;20010;-79
2023/12/21 12:15:59;;;;;;;0.60;0.60;;;;;;;;;;7397842;19;19995;-79
2023/12/21 12:18:24;;;;;;;0.70;0.70;;;;;;;;;;7402197;19;20002;-78
2023/12/21 12:21:00;;;;;;;0.43;0.43;;;;;;;;;;7381895;19;20577;-78
2023/12/21 12:23:26;;;;;;;13.48;7.40;;;;;;;;;;7397023;19;20010;-78
2023/12/21 12:25:51;;;;;;;0.90;0.65;;;;;;;;;;7380173;19;20062;-77
2023/12/21 12:28:18;;;;;;;0.60;0.60;;;;;;;;;;7377558;19;20046;-79
2023/12/21 12:30:47;;;;;;;0.75;0.65;;;;;;;;;;7378793;19;19998;-79
2023/12/21 12:33:13;;;;;;;0.57;0.57;;;;;;;;;;7377182;19;20002;-77
2023/12/21 12:35:39;;;;;;;0.90;0.60;;;;;;;;;;7393764;19;20441;-80
2023/12/21 12:38:04;;;;;;;1.65;0.70;;;;;;;;;;7378595;19;20579;-78
2023/12/21 12:40:30;;;;;;;0.80;0.80;;;;;;;;;;7379861;19;20448;-79
2023/12/21 12:42:56;;;;;;;0.50;0.50;;;;;;;;;;7390858;19;20040;-80
2023/12/21 12:45:23;;;;;;;1.13;0.80;;;;;;;;;;7390136;19;20006;-80
2023/12/21 12:47:49;;;;;;;0.52;0.52;;;;;;;;;;7387032;19;20074;-80
2023/12/21 12:50:14;;;;;;;0.65;0.65;;;;;;;;;;7406553;19;20002;-80
2023/12/21 12:52:40;;;;;;;1.75;0.70;;;;;;;;;;7386633;19;20048;-79
2023/12/21 12:55:07;;;;;;;0.60;0.60;;;;;;;;;;7380393;19;19998;-80
2023/12/21 12:57:33;;;;;;;0.93;0.73;;;;;;;;;;7379177;19;20899;-80
2023/12/21 12:59:59;;;;;;;1.13;1.02;;;;;;;;;;7382561;19;19995;-79
2023/12/21 13:02:24;;;;;;;1.25;0.75;;;;;;;;;;7399969;19;20066;-79
2023/12/21 13:04:50;;;;;;;0.80;0.80;;;;;;;;;;7377413;19;20830;-80
2023/12/21 13:07:17;;;;;;;0.60;0.60;;;;;;;;;;7389821;19;19987;-79
2023/12/21 13:09:42;;;;;;;0.68;0.68;;;;;;;;;;7382453;19;19994;-80
2023/12/21 13:12:07;;;;;;;0.77;0.73;;;;;;;;;;7380515;19;20049;-79
2023/12/21 13:14:33;;;;;;;0.80;0.80;;;;;;;;;;7397471;19;19991;-79
2023/12/21 13:16:58;;;;;;;1.33;0.88;;;;;;;;;;7376875;19;20398;-80
2023/12/21 13:19:23;;;;;;;0.85;0.70;;;;;;;;;;7378256;19;19998;-80
2023/12/21 13:21:49;;;;;;;0.77;0.77;;;;;;;;;;7376426;19;20002;-79
2023/12/21 13:24:16;;;;;;;1.15;1.00;;;;;;;;;;7377479;19;20010;-81
2023/12/21 13:26:41;;;;;;;1.33;0.98;;;;;;;;;;7400652;19;20065;-80
2023/12/21 13:29:08;;;;;;;1.48;1.10;;;;;;;;;;7377317;19;19995;-80
2023/12/21 13:31:34;;;;;;;2.92;1.40;;;;;;;;;;7388723;19;20053;-79
2023/12/21 13:34:00;;;;;;;1.17;1.08;;;;;;;;;;7401176;19;20006;-79
2023/12/21 13:36:25;;;;;;;2.25;1.25;;;;;;;;;;7403044;19;20002;-80
2023/12/21 13:38:52;;;;;;;0.85;0.85;;;;;;;;;;7382693;19;20484;-79
2023/12/21 13:41:17;;;;;;;1.00;0.93;;;;;;;;;;7398297;19;20014;-79
2023/12/21 13:43:44;;;;;;;1.40;1.00;;;;;;;;;;7372955;19;20021;-79
2023/12/21 13:46:10;;;;;;;1.05;0.88;;;;;;;;;;7374908;19;20006;-80
2023/12/21 13:48:35;;;;;;;0.90;0.80;;;;;;;;;;7379543;19;20018;-80
2023/12/21 13:51:01;;;;;;;0.82;0.82;;;;;;;;;;7379393;19;20022;-81
2023/12/21 13:53:26;;;;;;;1.52;1.25;;;;;;;;;;7408347;19;20402;-82
2023/12/21 13:55:52;;;;;;;2.83;0.90;;;;;;;;;;7405569;19;20118;-83
2023/12/21 13:58:17;;;;;;;3.13;1.75;;;;;;;;;;7408410;19;19994;-80
2023/12/21 14:00:44;;;;;;;5.03;2.67;;;;;;;;;;7406533;19;20019;-80
2023/12/21 14:03:11;;;;;;;1.65;1.23;;;;;;;;;;7408384;19;20023;-83
2023/12/21 14:05:37;;;;;;;1.27;1.05;;;;;;;;;;7428130;19;20019;-82
2023/12/21 14:08:02;;;;;;;1.13;1.00;;;;;;;;;;7402605;19;19990;-81
2023/12/21 14:10:28;;;;;;;1.85;1.00;;;;;;;;;;7390237;19;20806;-82
2023/12/21 14:12:53;;;;;;;1.08;0.80;;;;;;;;;;7382890;19;20002;-82
2023/12/21 14:15:19;;;;;;;0.80;0.80;;;;;;;;;;7379709;19;20494;-82
2023/12/21 14:17:44;;;;;;;1.17;1.08;;;;;;;;;;7391019;19;20342;-83
2023/12/21 14:20:11;;;;;;;1.52;0.93;;;;;;;;;;7369666;19;20027;-82
2023/12/21 14:22:36;;;;;;;1.48;1.00;;;;;;;;;;7374273;19;20002;-82
2023/12/21 14:25:02;;;;;;;0.80;0.80;;;;;;;;;;7374975;19;20027;-83
2023/12/21 14:27:27;;;;;;;0.90;0.90;;;;;;;;;;7375973;19;20066;-82
2023/12/21 14:29:53;;;;;;;1.30;0.90;;;;;;;;;;7372260;19;19999;-82
2023/12/21 14:32:18;;;;;;;0.95;0.90;;;;;;;;;;7394990;19;20001;-82
2023/12/21 14:34:44;;;;;;;1.63;0.95;;;;;;;;;;7374299;19;20005;-83
2023/12/21 14:37:11;;;;;;;1.00;0.90;;;;;;;;;;7374016;19;20370;-83